Time;durP1;ratioP1;P1;durP2;ratioP2;P2;SDS_P1;SDS_P2;PMS_P1;PMS_P2;Temp;Humidity;BMP_temperature;BMP_pressure;BME280_temperature;BME280_humidity;BME280_pressure;Samples;Min_cycle;Max_cycle;Signal;HPM_P1;HPM_P2
2024/03/26 00:01:20;;;;;;;;;;;;;;;23.27;45.39;92293.84;5045669;28;6976;-59
2024/03/26 00:03:47;;;;;;;;;;;;;;;23.25;45.08;92296.41;5023971;28;9124;-59
2024/03/26 00:06:13;;;;;;;;;;;;;;;23.24;45.49;92296.97;5035996;28;7715;-59
2024/03/26 00:08:45;;;;;;;;;;;;;;;23.17;45.66;92273.72;5036270;28;9384;-59
2024/03/26 00:11:11;;;;;;;;;;;;;;;23.22;45.34;92286.56;5051857;28;9424;-60
2024/03/26 00:13:38;;;;;;;;;;;;;;;23.21;45.41;92287.81;5033541;28;8759;-59
2024/03/26 00:16:07;;;;;;;;;;;;;;;23.19;45.37;92298.59;5058051;28;9087;-59
2024/03/26 00:18:50;;;;;;;;;;;;;;;23.17;45.67;92276.47;5051219;28;7106;-59
2024/03/26 00:21:16;;;;;;;;;;;;;;;23.16;45.58;92277.75;5035780;28;9408;-60
2024/03/26 00:24:02;;;;;;;;;;;;;;;23.15;45.51;92281.78;5038488;28;9097;-60
2024/03/26 00:26:31;;;;;;;;;;;;;;;23.08;45.29;92268.03;5051858;28;9297;-59
2024/03/26 00:29:00;;;;;;;;;;;;;;;23.12;45.84;92282.84;5053303;28;9026;-59
2024/03/26 00:31:33;;;;;;;;;;;;;;;23.12;45.74;92271.88;5040718;28;7200;-59
2024/03/26 00:34:03;;;;;;;;;;;;;;;23.11;45.57;92269.69;5049320;28;9372;-59
2024/03/26 00:36:31;;;;;;;;;;;;;;;23.07;45.55;92270.06;5042290;28;8973;-59
2024/03/26 00:39:06;;;;;;;;;;;;;;;23.10;45.50;92266.22;5047934;28;9036;-59
2024/03/26 00:41:45;;;;;;;;;;;;;;;23.09;45.08;92253.81;5049662;28;9148;-59
2024/03/26 00:44:13;;;;;;;;;;;;;;;23.05;45.40;92250.66;5054229;28;8965;-59
2024/03/26 00:46:39;;;;;;;;;;;;;;;23.08;45.30;92244.09;5054859;28;8912;-59
2024/03/26 00:49:05;;;;;;;;;;;;;;;23.08;45.38;92246.84;5054791;28;9088;-59
2024/03/26 00:51:31;;;;;;;;;;;;;;;23.05;45.41;92242.44;5054646;28;9505;-59
2024/03/26 00:54:00;;;;;;;;;;;;;;;23.06;45.66;92219.25;5042522;28;9851;-63
2024/03/26 00:56:26;;;;;;;;;;;;;;;23.06;45.65;92227.47;5035246;28;8625;-63
2024/03/26 00:58:54;;;;;;;;;;;;;;;23.05;45.66;92225.28;5036692;28;9723;-64
2024/03/26 01:01:20;;;;;;;;;;;;;;;23.05;45.46;92219.78;5047267;28;9576;-63
2024/03/26 01:03:46;;;;;;;;;;;;;;;23.05;45.12;92225.28;5040159;28;9798;-63
2024/03/26 01:06:13;;;;;;;;;;;;;;;23.05;45.24;92234.22;5047641;28;9534;-63
2024/03/26 01:08:43;;;;;;;;;;;;;;;23.03;45.26;92230.56;5047379;28;9727;-64
2024/03/26 01:11:21;;;;;;;;;;;;;;;23.05;45.26;92223.25;5046560;28;9140;-63
2024/03/26 01:13:57;;;;;;;;;;;;;;;23.03;45.46;92220.31;5035729;28;9419;-63
2024/03/26 01:16:24;;;;;;;;;;;;;;;23.02;45.08;92218.88;5042869;28;9054;-63
2024/03/26 01:19:00;;;;;;;;;;;;;;;23.04;45.48;92223.78;5042335;28;9532;-63
2024/03/26 01:21:58;;;;;;;;;;;;;;;23.04;45.52;92223.78;5043451;28;8734;-63
2024/03/26 01:24:38;;;;;;;;;;;;;;;23.04;45.49;92226.53;5016502;28;9030;-63
2024/03/26 01:27:44;;;;;;;;;;;;;;;23.06;45.38;92226.72;5031719;28;9318;-63
2024/03/26 01:30:39;;;;;;;;;;;;;;;23.06;45.59;92223.97;4970522;28;9023;-63
2024/03/26 01:33:28;;;;;;;;;;;;;;;23.04;45.72;92219.06;4925059;29;9271;-61
2024/03/26 01:36:17;;;;;;;;;;;;;;;23.04;45.13;92221.06;4935414;29;6911;-61
2024/03/26 01:38:56;;;;;;;;;;;;;;;22.98;45.19;92202.06;4916660;29;7336;-61
2024/03/26 01:41:23;;;;;;;;;;;;;;;23.02;45.32;92196.94;4918493;29;9734;-61
2024/03/26 01:43:51;;;;;;;;;;;;;;;23.01;45.62;92195.47;4915181;29;7095;-61
2024/03/26 01:46:18;;;;;;;;;;;;;;;23.01;45.25;92192.72;4919347;29;9049;-61
2024/03/26 01:48:45;;;;;;;;;;;;;;;23.01;45.46;92192.72;4931705;29;9185;-61
2024/03/26 01:51:46;;;;;;;;;;;;;;;23.00;45.67;92183.03;4919361;29;9612;-61
2024/03/26 01:54:50;;;;;;;;;;;;;;;22.99;45.41;92184.31;4900537;29;9051;-61
2024/03/26 01:57:29;;;;;;;;;;;;;;;22.98;45.20;92184.88;4878638;29;7664;-61
2024/03/26 02:00:26;;;;;;;;;;;;;;;22.93;45.44;92172.06;5111392;27;6688;-60
2024/03/26 02:02:52;;;;;;;;;;;;;;;22.92;45.47;92167.88;5091014;28;7249;-60
2024/03/26 02:05:20;;;;;;;;;;;;;;;22.95;45.14;92174.97;5087990;28;9793;-60
2024/03/26 02:07:55;;;;;;;;;;;;;;;22.98;45.10;92179.38;5089110;28;9492;-60
2024/03/26 02:10:21;;;;;;;;;;;;;;;22.97;45.51;92173.16;5098075;28;9042;-60
2024/03/26 02:12:56;;;;;;;;;;;;;;;22.97;45.22;92170.41;5090296;28;7217;-59
2024/03/26 02:15:22;;;;;;;;;;;;;;;22.97;45.33;92167.69;5090967;28;7109;-60
2024/03/26 02:17:48;;;;;;;;;;;;;;;22.89;44.96;92150.50;5082428;28;9250;-60
2024/03/26 02:20:14;;;;;;;;;;;;;;;22.91;45.23;92147.94;5100672;28;6979;-60
2024/03/26 02:22:46;;;;;;;;;;;;;;;22.93;45.51;92148.13;5087021;28;7100;-60
2024/03/26 02:25:12;;;;;;;;;;;;;;;22.98;45.47;92149.22;5089805;28;7290;-60
2024/03/26 02:27:44;;;;;;;;;;;;;;;22.98;45.12;92141.00;5101916;28;7182;-60
2024/03/26 02:30:39;;;;;;;;;;;;;;;22.96;45.27;92136.06;5093401;28;7036;-59
2024/03/26 02:33:05;;;;;;;;;;;;;;;22.96;44.98;92130.59;5047835;28;9778;-60
2024/03/26 02:35:32;;;;;;;;;;;;;;;22.97;45.11;92129.31;5052393;28;7048;-60
2024/03/26 02:37:59;;;;;;;;;;;;;;;22.97;44.84;92134.78;5046468;28;7014;-60
2024/03/26 02:40:26;;;;;;;;;;;;;;;22.98;44.88;92132.78;5048613;28;7347;-60
2024/03/26 02:42:52;;;;;;;;;;;;;;;22.91;45.02;92120.53;5041247;28;7020;-61
2024/03/26 02:45:19;;;;;;;;;;;;;;;22.97;44.95;92123.06;5046292;28;9581;-61
2024/03/26 02:47:47;;;;;;;;;;;;;;;23.00;45.14;92116.50;5046189;28;7058;-61
2024/03/26 02:50:13;;;;;;;;;;;;;;;22.98;44.67;92108.84;5045647;28;9050;-61
2024/03/26 02:52:39;;;;;;;;;;;;;;;22.91;45.03;92104.09;5044866;28;7093;-61
2024/03/26 02:55:07;;;;;;;;;;;;;;;22.98;45.19;92111.59;5044511;28;7081;-61
2024/03/26 02:57:35;;;;;;;;;;;;;;;23.01;45.04;92115.25;5035416;28;8727;-61
2024/03/26 03:00:05;;;;;;;;;;;;;;;22.98;45.04;92097.13;5045405;28;7080;-61
2024/03/26 03:02:33;;;;;;;;;;;;;;;22.99;44.89;92098.59;5045079;28;7190;-61
2024/03/26 03:05:02;;;;;;;;;;;;;;;22.96;45.34;92083.25;5044809;28;9137;-61
2024/03/26 03:07:30;;;;;;;;;;;;;;;23.02;44.75;92098.25;5028676;28;9018;-61
2024/03/26 03:09:56;;;;;;;;;;;;;;;22.97;44.84;92084.69;5064407;28;7097;-61
2024/03/26 03:12:22;;;;;;;;;;;;;;;22.95;44.95;92077.03;5063611;28;9115;-61
2024/03/26 03:14:47;;;;;;;;;;;;;;;22.96;45.32;92094.97;5075949;28;7200;-61
2024/03/26 03:17:14;;;;;;;;;;;;;;;22.95;45.11;92109.94;5076482;28;7304;-61
2024/03/26 03:19:42;;;;;;;;;;;;;;;22.98;45.00;92119.06;5066240;28;7171;-61
2024/03/26 03:22:10;;;;;;;;;;;;;;;22.99;44.68;92129.47;5070732;28;8941;-61
2024/03/26 03:24:47;;;;;;;;;;;;;;;23.01;45.20;92126.91;5065454;28;7275;-61
2024/03/26 03:27:32;;;;;;;;;;;;;;;23.00;44.90;92120.00;5071983;28;7206;-61
2024/03/26 03:30:01;;;;;;;;;;;;;;;22.98;44.92;92111.59;5074597;28;7018;-61
2024/03/26 03:32:56;;;;;;;;;;;;;;;22.99;44.96;92121.25;5075774;28;9135;-61
2024/03/26 03:35:22;;;;;;;;;;;;;;;22.97;44.80;92115.59;5015734;28;9504;-61
2024/03/26 03:38:03;;;;;;;;;;;;;;;22.94;44.97;92107.75;5005871;28;7294;-61
2024/03/26 03:40:53;;;;;;;;;;;;;;;22.96;45.30;92116.88;4997667;28;7473;-61
2024/03/26 03:43:23;;;;;;;;;;;;;;;22.92;44.94;92104.81;5014225;28;7127;-61
2024/03/26 03:46:03;;;;;;;;;;;;;;;22.93;44.85;92107.00;5007718;28;7035;-61
2024/03/26 03:49:08;;;;;;;;;;;;;;;22.94;44.97;92096.78;5014313;28;7175;-61
2024/03/26 03:51:44;;;;;;;;;;;;;;;22.90;44.95;92079.97;5007818;28;7177;-58
2024/03/26 03:54:24;;;;;;;;;;;;;;;22.91;45.32;92076.69;5011152;28;7743;-59
2024/03/26 03:56:52;;;;;;;;;;;;;;;22.91;45.34;92084.91;5011214;28;7117;-59
2024/03/26 03:59:17;;;;;;;;;;;;;;;22.82;45.01;92065.50;5013183;28;7234;-59
2024/03/26 04:01:46;;;;;;;;;;;;;;;22.88;45.26;92069.53;5007436;28;7087;-59
2024/03/26 04:04:11;;;;;;;;;;;;;;;22.88;45.10;92083.25;5005938;28;7037;-59
2024/03/26 04:06:48;;;;;;;;;;;;;;;22.86;45.11;92079.63;4996320;28;9175;-58
2024/03/26 04:09:17;;;;;;;;;;;;;;;22.84;44.94;92082.88;4982258;28;7272;-59
2024/03/26 04:11:45;;;;;;;;;;;;;;;22.84;45.36;92076.66;5039544;28;9510;-59
2024/03/26 04:14:11;;;;;;;;;;;;;;;22.85;45.31;92067.16;5070271;28;7043;-58
2024/03/26 04:16:37;;;;;;;;;;;;;;;22.89;45.26;92073.75;5070625;28;7103;-59
2024/03/26 04:19:05;;;;;;;;;;;;;;;22.90;45.11;92071.75;5070215;28;6971;-59
2024/03/26 04:21:34;;;;;;;;;;;;;;;22.87;45.26;92068.09;5065729;28;7748;-59
2024/03/26 04:24:00;;;;;;;;;;;;;;;22.88;45.34;92072.28;5066498;28;7301;-59
2024/03/26 04:26:27;;;;;;;;;;;;;;;22.87;45.21;92076.31;5071248;28;7212;-59
2024/03/26 04:29:00;;;;;;;;;;;;;;;22.82;45.08;92069.00;5072415;28;9360;-59
2024/03/26 04:31:26;;;;;;;;;;;;;;;22.86;45.24;92077.56;5065932;28;7023;-59
2024/03/26 04:33:54;;;;;;;;;;;;;;;22.88;44.77;92066.09;5063346;28;9367;-59
2024/03/26 04:36:20;;;;;;;;;;;;;;;22.86;44.94;92061.13;5066434;28;7272;-59
2024/03/26 04:38:48;;;;;;;;;;;;;;;22.82;45.10;92055.28;5066369;28;7125;-59
2024/03/26 04:41:20;;;;;;;;;;;;;;;22.85;45.35;92056.94;5081792;28;9479;-59
2024/03/26 04:43:51;;;;;;;;;;;;;;;22.77;44.93;92050.72;5073745;28;9103;-59
2024/03/26 04:46:19;;;;;;;;;;;;;;;22.85;45.25;92050.72;5081709;28;7047;-59
2024/03/26 04:48:52;;;;;;;;;;;;;;;22.75;45.20;92027.91;5054473;28;7230;-59
2024/03/26 04:51:21;;;;;;;;;;;;;;;22.85;45.35;92039.75;5071326;28;9275;-59
2024/03/26 04:53:51;;;;;;;;;;;;;;;22.85;45.02;92048.72;5069584;28;7027;-59
2024/03/26 04:56:17;;;;;;;;;;;;;;;22.84;45.37;92041.78;5066929;28;7025;-59
2024/03/26 04:58:45;;;;;;;;;;;;;;;22.77;45.21;92030.81;5071791;28;7053;-59
2024/03/26 05:01:14;;;;;;;;;;;;;;;22.82;44.93;92041.59;5062753;28;7279;-62
2024/03/26 05:03:39;;;;;;;;;;;;;;;22.85;45.08;92045.97;5065792;28;7406;-62
2024/03/26 05:06:05;;;;;;;;;;;;;;;22.80;45.31;92032.44;5089630;28;9615;-61
2024/03/26 05:08:43;;;;;;;;;;;;;;;22.79;44.87;92031.75;5067338;28;7059;-61
2024/03/26 05:11:22;;;;;;;;;;;;;;;22.84;44.64;92033.53;5055501;28;7222;-61
2024/03/26 05:14:13;;;;;;;;;;;;;;;22.84;45.40;92041.03;5066145;28;7256;-62
2024/03/26 05:16:53;;;;;;;;;;;;;;;22.83;45.04;92029.34;5066852;28;7131;-61
2024/03/26 05:19:31;;;;;;;;;;;;;;;22.77;45.05;92020.56;5073182;28;7071;-62
2024/03/26 05:21:59;;;;;;;;;;;;;;;22.79;45.53;92029.00;5082642;28;7027;-61
2024/03/26 05:24:28;;;;;;;;;;;;;;;22.80;45.25;92021.50;5066843;28;8304;-62
2024/03/26 05:27:06;;;;;;;;;;;;;;;22.75;44.89;92031.34;5073293;28;7329;-63
2024/03/26 05:29:41;;;;;;;;;;;;;;;22.80;45.31;92037.94;5073123;28;9698;-65
2024/03/26 05:32:19;;;;;;;;;;;;;;;22.84;45.67;92039.03;5061990;28;7613;-72
2024/03/26 05:34:45;;;;;;;;;;;;;;;22.83;45.40;92025.88;5079869;28;7198;-75
2024/03/26 05:37:22;;;;;;;;;;;;;;;22.91;45.46;92015.63;5086938;28;7133;-72
2024/03/26 05:40:07;;;;;;;;;;;;;;;22.91;46.81;92007.41;5062387;28;7336;-75
2024/03/26 05:42:47;;;;;;;;;;;;;;;23.08;47.81;92019.28;5078209;28;9058;-74
2024/03/26 05:45:45;;;;;;;;;;;;;;;23.15;47.38;92012.31;5084185;28;7303;-71
2024/03/26 05:48:18;;;;;;;;;;;;;;;23.19;47.24;92018.88;5018491;28;8180;-67
2024/03/26 05:50:59;;;;;;;;;;;;;;;23.23;47.19;92018.50;5029679;28;9309;-75
2024/03/26 05:53:26;;;;;;;;;;;;;;;23.21;46.58;92021.81;5024584;28;7276;-75
2024/03/26 05:56:01;;;;;;;;;;;;;;;23.16;45.11;92019.97;5029987;28;9430;-74
2024/03/26 05:58:27;;;;;;;;;;;;;;;23.04;45.55;92012.69;5031384;28;7332;-65
2024/03/26 06:00:56;;;;;;;;;;;;;;;23.03;45.38;92011.25;5016766;28;7125;-65
2024/03/26 06:03:22;;;;;;;;;;;;;;;23.02;45.32;92021.47;5032277;28;9135;-63
2024/03/26 06:05:47;;;;;;;;;;;;;;;23.02;45.23;92026.97;5031049;28;9276;-63
2024/03/26 06:08:13;;;;;;;;;;;;;;;22.98;45.67;92010.16;5012666;28;9114;-63
2024/03/26 06:10:47;;;;;;;;;;;;;;;23.01;45.63;92014.53;5009643;28;7224;-64
2024/03/26 06:13:14;;;;;;;;;;;;;;;23.04;45.84;92010.69;5029736;28;9501;-63
2024/03/26 06:15:40;;;;;;;;;;;;;;;23.05;45.73;92014.88;5019606;28;8865;-63
2024/03/26 06:18:07;;;;;;;;;;;;;;;23.06;46.16;92004.66;5021252;28;9908;-65
2024/03/26 06:20:36;;;;;;;;;;;;;;;23.07;45.84;92015.09;5021808;28;7270;-64
2024/03/26 06:23:02;;;;;;;;;;;;;;;23.09;46.08;92015.25;5035610;28;9120;-63
2024/03/26 06:25:30;;;;;;;;;;;;;;;23.07;45.98;92020.56;5069100;28;6870;-62
2024/03/26 06:27:56;;;;;;;;;;;;;;;23.09;46.31;92018.00;5064595;28;9756;-63
2024/03/26 06:30:29;;;;;;;;;;;;;;;23.10;46.10;92019.44;5064783;28;8786;-64
2024/03/26 06:32:58;;;;;;;;;;;;;;;23.12;46.50;92013.41;5072033;28;9516;-64
2024/03/26 06:35:24;;;;;;;;;;;;;;;23.11;46.27;92012.69;5085895;28;9133;-64
2024/03/26 06:37:55;;;;;;;;;;;;;;;23.13;46.07;92006.66;5072221;28;9278;-64
2024/03/26 06:40:53;;;;;;;;;;;;;;;23.14;45.92;92010.88;5055052;28;7227;-64
2024/03/26 06:43:57;;;;;;;;;;;;;;;23.12;45.61;92003.19;5019095;28;9409;-64
2024/03/26 06:46:44;;;;;;;;;;;;;;;23.09;45.86;92009.03;5007031;28;7346;-64
2024/03/26 06:49:12;;;;;;;;;;;;;;;23.09;46.19;92004.28;5012910;28;9120;-64
2024/03/26 06:51:50;;;;;;;;;;;;;;;23.13;46.51;92007.38;5013059;28;9314;-64
2024/03/26 06:54:25;;;;;;;;;;;;;;;23.15;46.15;92018.53;5015307;28;7319;-63
2024/03/26 06:57:00;;;;;;;;;;;;;;;23.20;47.71;92017.63;5009628;28;9308;-63
2024/03/26 06:59:27;;;;;;;;;;;;;;;23.31;52.66;92026.72;4999832;28;7278;-63
2024/03/26 07:01:53;;;;;;;;;;;;;;;23.63;55.93;92015.88;5008937;28;9256;-63
2024/03/26 07:04:19;;;;;;;;;;;;;;;23.93;55.48;92019.22;5018642;28;9022;-63
2024/03/26 07:06:45;;;;;;;;;;;;;;;24.19;56.53;92026.25;5003000;28;9286;-63
2024/03/26 07:09:11;;;;;;;;;;;;;;;24.43;56.59;92025.56;5007847;28;9121;-63
2024/03/26 07:11:47;;;;;;;;;;;;;;;24.64;55.14;92025.25;5018084;28;7182;-61
2024/03/26 07:14:23;;;;;;;;;;;;;;;24.78;52.48;92025.69;5030385;28;9853;-59
2024/03/26 07:17:08;;;;;;;;;;;;;;;24.84;47.85;92015.94;5017776;28;9050;-60
2024/03/26 07:19:42;;;;;;;;;;;;;;;24.85;45.35;92022.16;5063789;28;8751;-63
2024/03/26 07:22:25;;;;;;;;;;;;;;;24.82;47.00;92004.03;5077046;28;9678;-61
2024/03/26 07:24:51;;;;;;;;;;;;;;;24.46;44.94;92010.72;5075573;28;9065;-61
2024/03/26 07:27:19;;;;;;;;;;;;;;;24.13;45.16;92001.03;5074180;28;8799;-60
2024/03/26 07:30:04;;;;;;;;;;;;;;;23.83;45.05;92006.66;5088144;28;9112;-60
2024/03/26 07:33:02;;;;;;;;;;;;;;;23.63;45.67;92007.63;5068710;28;8973;-60
2024/03/26 07:35:31;;;;;;;;;;;;;;;23.51;45.82;92001.09;5016550;28;7044;-60
2024/03/26 07:37:59;;;;;;;;;;;;;;;23.42;46.10;91998.94;5017415;28;9830;-60
2024/03/26 07:40:26;;;;;;;;;;;;;;;23.38;45.83;92001.34;5017145;28;9521;-61
2024/03/26 07:42:53;;;;;;;;;;;;;;;23.29;46.33;91982.69;5017198;28;8702;-60
2024/03/26 07:45:32;;;;;;;;;;;;;;;23.33;46.28;91992.00;5016801;28;9102;-60
2024/03/26 07:48:27;;;;;;;;;;;;;;;23.31;46.32;91974.63;5013079;28;8951;-60
2024/03/26 07:51:04;;;;;;;;;;;;;;;23.31;46.49;91974.63;4975679;28;9410;-60
2024/03/26 07:53:42;;;;;;;;;;;;;;;23.28;46.82;91984.69;4993051;28;8776;-60
2024/03/26 07:56:22;;;;;;;;;;;;;;;23.27;46.60;91981.19;4978223;28;8801;-60
2024/03/26 07:58:48;;;;;;;;;;;;;;;23.22;46.80;91970.44;4980583;28;9932;-59
2024/03/26 08:01:17;;;;;;;;;;;;;;;23.17;46.71;91972.09;4977470;28;7087;-60
2024/03/26 08:03:46;;;;;;;;;;;;;;;23.15;46.55;91955.47;4977846;28;9429;-60
2024/03/26 08:06:13;;;;;;;;;;;;;;;23.14;46.92;91956.75;4977990;28;9474;-60
2024/03/26 08:08:40;;;;;;;;;;;;;;;23.11;46.68;91955.13;4974406;28;7112;-60
2024/03/26 08:11:12;;;;;;;;;;;;;;;23.13;47.14;91962.78;4986461;28;9740;-60
2024/03/26 08:14:10;;;;;;;;;;;;;;;23.14;46.78;91970.44;5030877;28;8721;-60
2024/03/26 08:16:38;;;;;;;;;;;;;;;23.14;47.08;91962.22;5009441;28;8740;-60
2024/03/26 08:19:24;;;;;;;;;;;;;;;23.17;46.96;91965.88;5016743;28;9068;-60
2024/03/26 08:21:50;;;;;;;;;;;;;;;23.15;46.81;91966.44;5016977;28;9928;-60
2024/03/26 08:24:51;;;;;;;;;;;;;;;23.17;46.90;91963.13;5017145;28;8719;-59
2024/03/26 08:27:35;;;;;;;;;;;;;;;23.17;46.71;91963.88;4948126;28;9502;-59
2024/03/26 08:30:04;;;;;;;;;;;;;;;23.17;46.73;91955.66;4939001;28;7114;-60
2024/03/26 08:32:39;;;;;;;;;;;;;;;23.18;46.75;91946.13;4938223;28;9008;-60
2024/03/26 08:35:22;;;;;;;;;;;;;;;23.17;46.24;91936.44;4938383;28;9470;-59
2024/03/26 08:38:39;;;;;;;;;;;;;;;23.18;46.25;91940.63;4938246;28;9746;-59
2024/03/26 08:41:25;;;;;;;;;;;;;;;23.22;46.48;91943.75;4932421;29;8206;-59
2024/03/26 08:43:54;;;;;;;;;;;;;;;23.23;46.53;91941.72;4928562;29;9035;-60
2024/03/26 08:46:22;;;;;;;;;;;;;;;23.27;46.44;91936.63;4929436;29;9373;-59
2024/03/26 08:48:48;;;;;;;;;;;;;;;23.29;46.32;91927.81;4925889;29;9257;-59
2024/03/26 08:51:28;;;;;;;;;;;;;;;23.30;46.14;91923.78;4924317;28;9615;-59
2024/03/26 08:54:02;;;;;;;;;;;;;;;23.34;46.14;91924.19;4969641;28;9459;-59
2024/03/26 08:56:38;;;;;;;;;;;;;;;23.35;46.13;91925.63;4990639;28;8691;-59
2024/03/26 08:59:04;;;;;;;;;;;;;;;23.37;46.04;91932.03;4969431;28;8685;-60
2024/03/26 09:01:30;;;;;;;;;;;;;;;23.37;45.91;91937.50;5014992;28;8918;-59
2024/03/26 09:03:58;;;;;;;;;;;;;;;23.43;46.15;91920.84;5035254;28;9016;-59
2024/03/26 09:06:34;;;;;;;;;;;;;;;23.47;46.62;91926.69;5036083;28;9025;-59
2024/03/26 09:09:09;;;;;;;;;;;;;;;23.48;46.16;91917.16;5031847;28;9032;-60
2024/03/26 09:11:37;;;;;;;;;;;;;;;23.53;46.54;91913.50;5051474;28;7328;-60
2024/03/26 09:14:05;;;;;;;;;;;;;;;23.58;46.31;91924.25;5050906;28;9568;-59
2024/03/26 09:16:31;;;;;;;;;;;;;;;23.63;46.48;91930.81;5048385;28;9148;-59
2024/03/26 09:18:58;;;;;;;;;;;;;;;23.68;45.91;91929.88;5085155;28;8568;-60
2024/03/26 09:21:26;;;;;;;;;;;;;;;23.72;46.25;91927.47;5077248;28;8599;-60
2024/03/26 09:23:55;;;;;;;;;;;;;;;23.77;45.88;91927.25;5073024;28;9356;-59
2024/03/26 09:26:22;;;;;;;;;;;;;;;23.80;46.13;91930.88;5071602;28;9464;-59
2024/03/26 09:28:47;;;;;;;;;;;;;;;23.85;45.96;91921.72;5089649;28;8656;-60
2024/03/26 09:31:13;;;;;;;;;;;;;;;23.89;45.67;91917.31;5072194;28;9547;-60
2024/03/26 09:33:40;;;;;;;;;;;;;;;23.90;45.38;91916.00;5072439;28;7036;-60
2024/03/26 09:36:06;;;;;;;;;;;;;;;23.93;45.72;91917.63;5071618;28;8715;-60
2024/03/26 09:38:34;;;;;;;;;;;;;;;23.97;46.02;91911.75;5073159;28;7301;-60
2024/03/26 09:41:17;;;;;;;;;;;;;;;24.00;45.82;91910.66;5060958;28;9528;-60
2024/03/26 09:44:03;;;;;;;;;;;;;;;24.03;45.91;91895.06;5058258;28;9234;-60
2024/03/26 09:46:40;;;;;;;;;;;;;;;24.05;45.23;91893.25;5072008;28;8231;-60
2024/03/26 09:49:12;;;;;;;;;;;;;;;24.06;45.43;91900.19;5086315;28;8745;-63
2024/03/26 09:51:43;;;;;;;;;;;;;;;24.08;44.83;91905.84;5070786;28;7438;-66
2024/03/26 09:54:13;;;;;;;;;;;;;;;24.07;45.26;91889.94;5083668;28;8328;-60
2024/03/26 09:56:40;;;;;;;;;;;;;;;24.08;45.66;91883.16;5083362;28;8918;-60
2024/03/26 09:59:05;;;;;;;;;;;;;;;24.07;45.70;91882.44;5064733;28;7257;-60
2024/03/26 10:01:36;;;;;;;;;;;;;;;24.09;45.85;91884.63;5068954;28;7304;-60
2024/03/26 10:04:02;;;;;;;;;;;;;;;24.07;45.10;91881.69;5082724;28;9054;-60
2024/03/26 10:06:34;;;;;;;;;;;;;;;24.04;45.57;91878.03;5070708;28;9314;-60
2024/03/26 10:09:00;;;;;;;;;;;;;;;24.05;45.11;91879.53;5070923;28;9266;-60
2024/03/26 10:11:29;;;;;;;;;;;;;;;24.04;45.74;91888.28;5069206;28;7008;-60
2024/03/26 10:14:00;;;;;;;;;;;;;;;24.03;45.68;91876.59;5072835;28;9513;-60
2024/03/26 10:16:26;;;;;;;;;;;;;;;24.06;45.24;91872.72;5066197;28;8705;-60
2024/03/26 10:18:52;;;;;;;;;;;;;;;24.07;45.37;91865.22;5086784;28;8750;-60
2024/03/26 10:21:22;;;;;;;;;;;;;;;24.05;45.30;91871.28;5067139;28;9183;-60
2024/03/26 10:23:53;;;;;;;;;;;;;;;24.06;45.71;91880.97;5073601;28;9430;-60
2024/03/26 10:26:21;;;;;;;;;;;;;;;24.04;45.56;91882.78;5074676;28;9457;-60
2024/03/26 10:28:50;;;;;;;;;;;;;;;24.05;45.32;91887.75;5071548;28;7036;-60
2024/03/26 10:31:19;;;;;;;;;;;;;;;24.03;46.07;91887.56;5069410;28;9431;-60
2024/03/26 10:33:47;;;;;;;;;;;;;;;24.07;46.23;91887.19;5073710;28;7088;-60
2024/03/26 10:36:16;;;;;;;;;;;;;;;23.99;45.61;91870.72;5071508;28;8810;-60
2024/03/26 10:38:42;;;;;;;;;;;;;;;24.07;45.69;91874.19;5073918;28;9606;-60
2024/03/26 10:41:17;;;;;;;;;;;;;;;24.09;45.76;91882.59;5084202;28;9082;-59
2024/03/26 10:43:44;;;;;;;;;;;;;;;24.09;45.98;91877.13;5065135;28;8144;-60
2024/03/26 10:46:10;;;;;;;;;;;;;;;24.09;45.82;91871.63;5069616;28;9421;-60
2024/03/26 10:48:44;;;;;;;;;;;;;;;24.10;45.61;91872.34;5089810;28;9414;-62
2024/03/26 10:51:25;;;;;;;;;;;;;;;24.10;45.57;91859.34;5090859;28;9751;-60
2024/03/26 10:53:56;;;;;;;;;;;;;;;24.06;45.78;91867.25;5076052;28;9883;-59
2024/03/26 10:56:25;;;;;;;;;;;;;;;24.07;45.76;91860.47;5083700;28;8732;-59
2024/03/26 10:59:00;;;;;;;;;;;;;;;24.11;45.95;91849.81;5068947;28;9021;-60
2024/03/26 11:01:29;;;;;;;;;;;;;;;24.12;45.89;91845.06;5067498;28;10264;-59
2024/03/26 11:03:57;;;;;;;;;;;;;;;24.15;44.85;91839.16;5067551;28;8822;-61
2024/03/26 11:06:24;;;;;;;;;;;;;;;24.09;45.45;91824.94;5062107;28;9070;-60
2024/03/26 11:09:06;;;;;;;;;;;;;;;24.17;45.20;91828.34;5074762;28;6852;-61
2024/03/26 11:11:40;;;;;;;;;;;;;;;24.20;44.70;91824.47;5091747;28;9027;-61
2024/03/26 11:14:06;;;;;;;;;;;;;;;24.28;43.42;91830.63;5072992;28;9454;-61
2024/03/26 11:16:38;;;;;;;;;;;;;;;24.32;43.78;91819.22;5071489;28;9147;-61
2024/03/26 11:19:28;;;;;;;;;;;;;;;24.35;43.41;91818.84;5074528;28;9606;-61
2024/03/26 11:22:03;;;;;;;;;;;;;;;24.38;43.88;91809.47;5067907;28;9244;-61
2024/03/26 11:24:34;;;;;;;;;;;;;;;24.46;44.15;91826.63;5073288;28;9081;-61
2024/03/26 11:27:04;;;;;;;;;;;;;;;24.50;44.32;91820.72;5073916;28;9365;-61
2024/03/26 11:29:40;;;;;;;;;;;;;;;24.54;43.88;91810.78;5071921;28;7161;-61
2024/03/26 11:32:09;;;;;;;;;;;;;;;24.60;42.70;91810.53;5071608;28;9235;-61
2024/03/26 11:35:39;;;;;;;;;;;;;;;24.70;43.31;91809.34;5072051;28;9615;-61
2024/03/26 11:38:06;;;;;;;;;;;;;;;24.78;43.55;91814.03;5017172;28;9395;-61
2024/03/26 11:40:32;;;;;;;;;;;;;;;24.86;43.18;91807.16;5026377;28;9010;-61
2024/03/26 11:43:11;;;;;;;;;;;;;;;24.92;43.23;91809.66;5016280;28;9605;-61
2024/03/26 11:45:37;;;;;;;;;;;;;;;24.96;43.44;91801.72;5016664;28;8955;-61
2024/03/26 11:48:10;;;;;;;;;;;;;;;24.99;43.15;91795.09;5017827;28;7431;-61
2024/03/26 11:50:46;;;;;;;;;;;;;;;25.09;43.25;91795.88;5031715;28;9475;-64
2024/03/26 11:53:42;;;;;;;;;;;;;;;25.13;42.29;91794.19;5016996;28;9089;-65
2024/03/26 11:56:38;;;;;;;;;;;;;;;25.17;42.75;91783.47;4974455;28;9480;-65
2024/03/26 11:59:08;;;;;;;;;;;;;;;25.19;42.33;91771.91;4903660;29;7326;-64
2024/03/26 12:01:37;;;;;;;;;;;;;;;25.22;43.22;91773.53;4900696;29;9437;-66
2024/03/26 12:04:02;;;;;;;;;;;;;;;25.24;43.10;91779.19;4916837;29;9499;-66
2024/03/26 12:06:32;;;;;;;;;;;;;;;25.16;42.83;91762.06;4896667;29;9427;-66
2024/03/26 12:08:59;;;;;;;;;;;;;;;25.25;42.41;91769.63;4920635;28;9242;-66
2024/03/26 12:11:43;;;;;;;;;;;;;;;25.25;42.71;91772.38;4944010;28;9204;-63
2024/03/26 12:14:09;;;;;;;;;;;;;;;25.28;42.74;91768.47;4934728;28;9390;-67
2024/03/26 12:16:38;;;;;;;;;;;;;;;25.29;42.15;91756.19;4948234;28;10015;-66
2024/03/26 12:19:19;;;;;;;;;;;;;;;25.26;42.49;91758.06;4964739;28;7293;-66
2024/03/26 12:21:57;;;;;;;;;;;;;;;25.29;42.47;91762.41;4953364;28;7043;-66
2024/03/26 12:24:24;;;;;;;;;;;;;;;25.28;43.17;91746.47;4944317;28;9699;-66
2024/03/26 12:26:53;;;;;;;;;;;;;;;25.29;42.52;91743.13;4945323;28;9006;-67
2024/03/26 12:29:20;;;;;;;;;;;;;;;25.30;42.60;91743.88;4941387;28;6856;-66
2024/03/26 12:31:46;;;;;;;;;;;;;;;25.33;42.86;91734.50;4968011;28;8821;-66
2024/03/26 12:34:13;;;;;;;;;;;;;;;25.33;42.83;91726.22;4972717;28;9683;-67
2024/03/26 12:36:44;;;;;;;;;;;;;;;25.33;43.17;91746.22;5071956;28;9066;-68
2024/03/26 12:39:12;;;;;;;;;;;;;;;25.31;42.62;91731.59;5065073;28;9164;-67
2024/03/26 12:41:40;;;;;;;;;;;;;;;25.26;42.94;91724.31;5072413;28;9812;-67
2024/03/26 12:44:18;;;;;;;;;;;;;;;25.22;42.96;91732.25;5069080;28;9460;-67
2024/03/26 12:46:58;;;;;;;;;;;;;;;25.22;42.45;91735.75;5067010;28;9735;-67
2024/03/26 12:49:25;;;;;;;;;;;;;;;25.14;42.68;91740.59;5066783;28;9156;-67
2024/03/26 12:51:57;;;;;;;;;;;;;;;25.05;43.30;91724.06;5071430;28;7255;-68
2024/03/26 12:54:24;;;;;;;;;;;;;;;24.96;43.50;91724.72;5072708;28;9423;-67
2024/03/26 12:56:50;;;;;;;;;;;;;;;24.87;43.86;91717.88;5069255;28;7215;-67
2024/03/26 12:59:20;;;;;;;;;;;;;;;24.81;44.07;91711.19;5087862;28;9657;-66
2024/03/26 13:01:49;;;;;;;;;;;;;;;24.73;44.01;91709.22;5071243;28;7075;-58
2024/03/26 13:04:14;;;;;;;;;;;;;;;24.69;44.56;91711.66;5071057;28;8825;-59
2024/03/26 13:06:41;;;;;;;;;;;;;;;24.63;43.91;91710.47;5083221;28;9850;-58
2024/03/26 13:09:08;;;;;;;;;;;;;;;24.55;44.40;91701.59;5068155;28;9119;-58
2024/03/26 13:11:34;;;;;;;;;;;;;;;24.53;44.83;91704.19;5069068;28;8701;-58
2024/03/26 13:14:01;;;;;;;;;;;;;;;24.50;45.06;91692.31;5069739;28;9238;-58
2024/03/26 13:16:40;;;;;;;;;;;;;;;24.47;45.01;91703.69;5085160;28;7098;-60
2024/03/26 13:19:13;;;;;;;;;;;;;;;24.40;44.68;91691.50;5069935;28;9010;-60
2024/03/26 13:21:48;;;;;;;;;;;;;;;24.42;44.85;91699.19;5078772;28;8997;-59
2024/03/26 13:24:15;;;;;;;;;;;;;;;24.38;45.63;91680.34;5066922;28;9428;-60
2024/03/26 13:26:44;;;;;;;;;;;;;;;24.35;45.43;91692.47;5086763;28;7118;-57